createdAt,value
2022-08-14T00:00:04.628Z,93.00
2022-08-14T00:02:31.709Z,93.00
2022-08-14T00:04:58.970Z,93.10
2022-08-14T00:07:25.926Z,93.10
2022-08-14T00:10:02.024Z,93.10
2022-08-14T00:12:56.729Z,93.10
2022-08-14T00:15:30.042Z,93.20
2022-08-14T00:18:14.754Z,93.30
2022-08-14T00:20:58.538Z,93.30
2022-08-14T00:23:26.495Z,93.40
2022-08-14T00:26:05.553Z,93.50
2022-08-14T00:28:36.000Z,93.50
2022-08-14T00:31:05.527Z,93.50
2022-08-14T00:33:51.580Z,93.70
2022-08-14T00:36:35.363Z,93.70
2022-08-14T00:39:06.547Z,93.80
2022-08-14T00:41:36.130Z,93.80
2022-08-14T00:44:05.826Z,93.80
2022-08-14T00:46:33.511Z,93.90
2022-08-14T00:49:00.887Z,94.00
2022-08-14T00:51:37.611Z,94.00
2022-08-14T00:54:22.056Z,94.10
2022-08-14T00:56:55.152Z,94.20
2022-08-14T00:59:24.980Z,94.20
2022-08-14T01:01:52.659Z,94.30
2022-08-14T01:04:51.879Z,94.30
2022-08-14T01:07:09.041Z,94.40
2022-08-14T01:09:37.567Z,94.50
2022-08-14T01:12:06.582Z,94.50
2022-08-14T01:14:35.790Z,94.60
2022-08-14T01:17:03.339Z,94.70
2022-08-14T01:19:49.584Z,94.80
2022-08-14T01:22:19.087Z,94.90
2022-08-14T01:24:46.913Z,94.90
2022-08-14T01:27:18.122Z,95.00
2022-08-14T01:30:01.478Z,95.10
2022-08-14T01:32:37.824Z,95.20
2022-08-14T01:35:20.263Z,95.30
2022-08-14T01:37:57.396Z,95.40
2022-08-14T01:40:36.802Z,95.40
2022-08-14T01:43:15.737Z,95.50
2022-08-14T01:45:49.110Z,95.60
2022-08-14T01:48:25.837Z,95.60
2022-08-14T01:50:53.674Z,95.70
2022-08-14T01:53:20.653Z,95.80
2022-08-14T01:55:51.572Z,95.80
2022-08-14T01:58:21.098Z,96.00
2022-08-14T02:00:56.466Z,96.00
2022-08-14T02:03:29.670Z,96.10
2022-08-14T02:06:03.779Z,96.20
2022-08-14T02:08:53.400Z,96.30
2022-08-14T02:11:22.842Z,96.40
2022-08-14T02:14:07.546Z,96.50
2022-08-14T02:16:43.285Z,96.50
2022-08-14T02:19:14.784Z,96.70
2022-08-14T02:21:48.738Z,96.80
2022-08-14T02:24:39.153Z,97.00
2022-08-14T02:28:23.589Z,97.00
2022-08-14T02:29:59.582Z,97.10
2022-08-14T02:32:30.254Z,97.30
2022-08-14T02:35:06.729Z,97.40
2022-08-14T02:37:45.701Z,97.40
2022-08-14T02:40:16.648Z,97.50
2022-08-14T02:42:54.546Z,97.60
2022-08-14T02:45:38.212Z,97.70
2022-08-14T02:49:02.079Z,97.90
2022-08-14T02:51:00.963Z,97.90
2022-08-14T02:53:31.571Z,98.10
2022-08-14T02:56:02.532Z,98.20
2022-08-14T02:58:31.095Z,98.30
2022-08-14T03:00:59.485Z,98.40
2022-08-14T03:03:28.422Z,98.50
2022-08-14T03:06:00.275Z,98.60
2022-08-14T03:08:31.745Z,98.80
2022-08-14T03:11:07.573Z,98.80
2022-08-14T03:13:39.557Z,99.00
2022-08-14T03:16:09.171Z,99.10
2022-08-14T03:18:48.390Z,99.20
2022-08-14T03:21:22.995Z,99.30
2022-08-14T03:23:58.707Z,99.40
2022-08-14T03:26:30.168Z,99.60
2022-08-14T03:29:01.199Z,99.70
2022-08-14T03:31:29.280Z,99.80
2022-08-14T03:33:56.833Z,99.80
2022-08-14T03:37:38.315Z,99.90
2022-08-14T03:39:22.094Z,99.90
2022-08-14T03:41:52.223Z,99.90
2022-08-14T03:45:25.217Z,99.90
2022-08-14T03:47:06.713Z,99.90
2022-08-14T03:49:35.403Z,99.90
2022-08-14T03:52:27.791Z,99.90
2022-08-14T03:54:55.709Z,99.90
2022-08-14T03:57:22.592Z,99.90
2022-08-14T03:59:49.631Z,99.90
2022-08-14T04:02:33.205Z,99.90
2022-08-14T04:05:12.125Z,99.90
2022-08-14T04:07:50.057Z,99.90
2022-08-14T04:10:32.643Z,99.90
2022-08-14T04:13:05.979Z,99.90
2022-08-14T04:15:56.353Z,99.90
2022-08-14T04:18:20.767Z,99.90
2022-08-14T04:20:54.630Z,99.90
2022-08-14T04:23:32.785Z,99.90
2022-08-14T04:26:02.008Z,99.90
2022-08-14T04:29:01.578Z,99.90
2022-08-14T04:31:16.279Z,99.90
2022-08-14T04:33:43.061Z,99.90
2022-08-14T04:36:16.043Z,99.90
2022-08-14T04:39:03.109Z,99.90
2022-08-14T04:41:48.211Z,99.90
2022-08-14T04:44:35.941Z,99.90
2022-08-14T04:47:23.771Z,99.90
2022-08-14T04:49:57.365Z,99.90
2022-08-14T04:52:25.337Z,99.90
2022-08-14T04:54:52.595Z,99.90
2022-08-14T04:57:21.873Z,99.90
2022-08-14T04:59:49.609Z,99.90
2022-08-14T05:02:18.139Z,99.90
2022-08-14T05:04:56.800Z,99.90
2022-08-14T05:07:53.877Z,99.90
2022-08-14T05:10:16.603Z,99.90
2022-08-14T05:13:13.547Z,99.90
2022-08-14T05:15:40.015Z,99.90
2022-08-14T05:18:37.152Z,99.90
2022-08-14T05:21:55.432Z,99.90
2022-08-14T05:23:50.355Z,99.90
2022-08-14T05:26:18.328Z,99.90
2022-08-14T05:28:46.125Z,99.90
2022-08-14T05:31:14.234Z,99.90
2022-08-14T05:33:56.779Z,99.90
2022-08-14T05:36:25.162Z,99.90
2022-08-14T05:38:53.177Z,99.90
2022-08-14T05:41:20.140Z,99.90
2022-08-14T05:43:48.889Z,99.90
2022-08-14T05:46:18.664Z,99.90
2022-08-14T05:48:53.597Z,99.90
2022-08-14T05:51:21.373Z,99.90
2022-08-14T05:54:00.130Z,99.90
2022-08-14T05:56:37.074Z,99.90
2022-08-14T05:59:05.587Z,99.90
2022-08-14T06:01:34.664Z,99.90
2022-08-14T06:04:02.198Z,99.90
2022-08-14T06:06:36.434Z,99.90
2022-08-14T06:09:05.807Z,99.90
2022-08-14T06:11:36.867Z,99.90
2022-08-14T06:14:03.717Z,99.90
2022-08-14T06:16:39.382Z,99.90
2022-08-14T06:19:07.477Z,99.90
2022-08-14T06:21:40.513Z,99.90
2022-08-14T06:24:10.465Z,99.90
2022-08-14T06:26:45.313Z,99.90
2022-08-14T06:29:21.280Z,99.90
2022-08-14T06:32:00.258Z,99.90
2022-08-14T06:35:09.702Z,99.90
2022-08-14T06:37:16.875Z,99.90
2022-08-14T06:39:44.411Z,99.90
2022-08-14T06:42:18.351Z,99.90
2022-08-14T06:45:01.168Z,99.90
2022-08-14T06:47:29.697Z,99.90
2022-08-14T06:49:57.763Z,99.90
2022-08-14T06:52:25.179Z,99.90
2022-08-14T06:54:52.027Z,99.90
2022-08-14T06:57:19.064Z,99.90
2022-08-14T06:59:48.609Z,99.90
2022-08-14T07:02:35.979Z,99.90
2022-08-14T07:05:23.139Z,99.90
2022-08-14T07:07:51.007Z,99.90
2022-08-14T07:10:17.964Z,99.90
2022-08-14T07:13:01.255Z,99.90
2022-08-14T07:15:29.473Z,99.90
2022-08-14T07:17:57.203Z,99.90
2022-08-14T07:20:30.571Z,99.90
2022-08-14T07:23:07.445Z,99.90
2022-08-14T07:25:37.548Z,99.90
2022-08-14T07:28:25.359Z,99.90
2022-08-14T07:30:57.479Z,99.90
2022-08-14T07:33:46.717Z,99.90
2022-08-14T07:36:27.501Z,99.90
2022-08-14T07:39:00.617Z,99.90
2022-08-14T07:41:31.407Z,99.90
2022-08-14T07:44:29.669Z,99.90
2022-08-14T07:46:49.103Z,99.90
2022-08-14T07:49:18.168Z,99.90
2022-08-14T07:51:49.526Z,99.90
2022-08-14T07:54:23.396Z,99.90
2022-08-14T07:56:59.836Z,99.90
2022-08-14T07:59:40.830Z,99.90
2022-08-14T08:02:19.458Z,99.90
2022-08-14T08:04:54.931Z,99.90
2022-08-14T08:07:30.001Z,99.90
2022-08-14T08:09:59.621Z,99.90
2022-08-14T08:12:29.465Z,99.90
2022-08-14T08:15:05.891Z,99.90
2022-08-14T08:17:38.997Z,99.90
2022-08-14T08:20:15.715Z,99.90
2022-08-14T08:22:48.392Z,99.90
2022-08-14T08:25:18.884Z,99.90
2022-08-14T08:28:08.562Z,99.90
2022-08-14T08:30:49.700Z,99.90
2022-08-14T08:33:20.087Z,99.90
2022-08-14T08:35:50.585Z,99.90
2022-08-14T08:39:14.493Z,99.90
2022-08-14T08:41:11.339Z,99.90
2022-08-14T08:43:39.303Z,99.90
2022-08-14T08:46:21.375Z,99.90
2022-08-14T08:51:33.257Z,99.90
2022-08-14T08:54:18.519Z,99.90
2022-08-14T08:56:48.376Z,99.90
2022-08-14T08:59:34.513Z,99.90
2022-08-14T09:02:05.397Z,99.90
2022-08-14T09:04:45.302Z,99.90
2022-08-14T09:07:26.019Z,99.90
2022-08-14T09:09:58.573Z,99.90
2022-08-14T09:12:26.993Z,99.90
2022-08-14T09:14:58.836Z,99.90
2022-08-14T09:17:26.288Z,99.90
2022-08-14T09:19:53.898Z,99.90
2022-08-14T09:22:36.488Z,99.90
2022-08-14T09:25:08.558Z,99.90
2022-08-14T09:27:37.571Z,99.90
2022-08-14T09:30:12.842Z,99.90
2022-08-14T09:33:22.883Z,99.90
2022-08-14T09:36:03.696Z,99.90
2022-08-14T09:39:21.154Z,99.80
2022-08-14T09:42:21.537Z,99.60
2022-08-14T09:45:17.894Z,99.50
2022-08-14T09:47:51.947Z,99.40
2022-08-14T09:50:33.040Z,99.30
2022-08-14T09:53:04.943Z,99.20
2022-08-14T09:55:42.371Z,99.30
2022-08-14T09:58:19.123Z,99.20
2022-08-14T10:00:52.670Z,99.10
2022-08-14T10:03:33.453Z,99.00
2022-08-14T10:06:12.084Z,98.90
2022-08-14T10:08:57.620Z,98.80
2022-08-14T10:11:31.019Z,98.70
2022-08-14T10:14:29.368Z,98.70
2022-08-14T10:17:06.310Z,98.70
2022-08-14T10:19:35.961Z,98.50
2022-08-14T10:23:13.030Z,98.40
2022-08-14T10:24:56.247Z,98.40
2022-08-14T10:27:24.895Z,98.10
2022-08-14T10:29:55.628Z,97.90
2022-08-14T10:32:29.108Z,97.90
2022-08-14T10:35:13.723Z,97.60
2022-08-14T10:37:48.526Z,97.60
2022-08-14T10:40:44.229Z,97.10
2022-08-14T10:43:19.247Z,96.70
2022-08-14T10:45:59.720Z,96.80
2022-08-14T10:48:36.936Z,96.70
2022-08-14T10:51:08.593Z,96.70
2022-08-14T10:53:39.909Z,96.70
2022-08-14T10:56:22.103Z,96.80
2022-08-14T10:59:08.127Z,96.80
2022-08-14T11:01:41.418Z,96.90
2022-08-14T11:04:30.245Z,96.80
2022-08-14T11:06:58.056Z,96.60
2022-08-14T11:09:26.207Z,96.60
2022-08-14T11:12:33.256Z,96.70
2022-08-14T11:14:59.601Z,96.70
2022-08-14T11:17:34.013Z,96.70
2022-08-14T11:20:02.815Z,96.70
2022-08-14T11:23:03.312Z,96.60
2022-08-14T11:25:18.524Z,96.60
2022-08-14T11:27:46.590Z,96.70
2022-08-14T11:30:50.053Z,96.70
2022-08-14T11:33:06.413Z,96.70
2022-08-14T11:35:44.226Z,96.80
2022-08-14T11:38:16.972Z,96.70
2022-08-14T11:40:46.580Z,96.40
2022-08-14T11:43:15.005Z,96.20
2022-08-14T11:45:45.790Z,96.10
2022-08-14T11:49:02.932Z,96.00
2022-08-14T11:51:23.803Z,96.10
2022-08-14T11:54:03.510Z,95.90
2022-08-14T11:56:39.656Z,95.70
2022-08-14T11:59:10.225Z,95.80
2022-08-14T12:01:41.312Z,96.00
2022-08-14T12:04:32.516Z,96.00
2022-08-14T12:07:01.310Z,95.90
2022-08-14T12:09:33.107Z,95.70
2022-08-14T12:12:01.899Z,95.70
2022-08-14T12:14:30.253Z,95.80
2022-08-14T12:17:09.544Z,95.80
2022-08-14T12:19:56.772Z,96.00
2022-08-14T12:22:46.447Z,96.10
2022-08-14T12:25:24.698Z,96.20
2022-08-14T12:27:54.606Z,96.30
2022-08-14T12:30:35.909Z,96.20
2022-08-14T12:33:08.690Z,96.20
2022-08-14T12:35:40.390Z,96.10
2022-08-14T12:38:07.375Z,96.10
2022-08-14T12:40:34.236Z,96.00
2022-08-14T12:43:03.247Z,95.90
2022-08-14T12:45:33.733Z,95.70
2022-08-14T12:48:21.027Z,95.70
2022-08-14T12:50:53.122Z,95.70
2022-08-14T12:53:22.032Z,95.70
2022-08-14T12:56:22.440Z,95.40
2022-08-14T12:58:51.749Z,95.20
2022-08-14T13:01:21.678Z,94.90
2022-08-14T13:03:51.781Z,94.60
2022-08-14T13:06:23.161Z,94.50
2022-08-14T13:08:53.617Z,94.20
2022-08-14T13:11:30.174Z,93.80
2022-08-14T13:13:59.352Z,93.50
2022-08-14T13:16:33.629Z,92.60
2022-08-14T13:19:11.744Z,92.00
2022-08-14T13:22:04.986Z,91.10
2022-08-14T13:24:33.597Z,89.80
2022-08-14T13:27:04.305Z,85.80
2022-08-14T13:29:32.077Z,83.90
2022-08-14T13:31:59.171Z,83.60
2022-08-14T13:34:29.160Z,83.10
2022-08-14T13:37:03.918Z,81.10
2022-08-14T13:39:36.183Z,80.10
2022-08-14T13:42:13.441Z,78.90
2022-08-14T13:44:45.406Z,78.80
2022-08-14T13:47:14.568Z,78.00
2022-08-14T13:49:57.832Z,77.30
2022-08-14T13:52:51.339Z,76.50
2022-08-14T13:55:14.086Z,77.00
2022-08-14T13:57:49.489Z,77.10
2022-08-14T14:00:21.870Z,76.60
2022-08-14T14:02:59.697Z,76.10
2022-08-14T14:05:26.609Z,75.40
2022-08-14T14:08:18.688Z,75.20
2022-08-14T14:10:45.961Z,75.00
2022-08-14T14:13:20.051Z,74.90
2022-08-14T14:15:57.911Z,74.50
2022-08-14T14:18:33.759Z,74.90
2022-08-14T14:21:02.354Z,75.20
2022-08-14T14:23:30.313Z,75.30
2022-08-14T14:25:59.363Z,75.50
2022-08-14T14:28:35.224Z,75.60
2022-08-14T14:31:06.785Z,75.40
2022-08-14T14:33:47.374Z,74.90
2022-08-14T14:36:23.322Z,75.00
2022-08-14T14:39:01.328Z,75.00
2022-08-14T14:41:38.314Z,75.10
2022-08-14T14:44:16.491Z,75.30
2022-08-14T14:46:51.125Z,75.40
2022-08-14T14:49:22.070Z,75.40
2022-08-14T14:51:53.125Z,75.60
2022-08-14T14:54:31.143Z,75.90
2022-08-14T14:57:00.522Z,77.90
2022-08-14T14:59:33.370Z,79.60
2022-08-14T15:02:08.219Z,81.60
2022-08-14T15:04:38.555Z,82.60
2022-08-14T15:07:06.430Z,83.20
2022-08-14T15:09:34.069Z,83.90
2022-08-14T15:12:02.591Z,84.50
2022-08-14T15:14:57.345Z,84.70
2022-08-14T15:17:25.249Z,84.80
2022-08-14T15:19:56.933Z,85.30
2022-08-14T15:22:25.265Z,85.40
2022-08-14T15:24:52.436Z,85.60
2022-08-14T15:27:26.212Z,86.00
2022-08-14T15:29:53.782Z,86.80
2022-08-14T15:32:23.169Z,87.20
2022-08-14T15:34:51.529Z,87.50
2022-08-14T15:37:19.713Z,87.80
2022-08-14T15:39:46.774Z,88.30
2022-08-14T15:42:17.055Z,88.50
2022-08-14T15:44:58.608Z,88.80
2022-08-14T15:47:30.651Z,89.40
2022-08-14T15:50:04.793Z,89.60
2022-08-14T15:52:43.102Z,89.70
2022-08-14T15:55:15.157Z,90.20
2022-08-14T15:58:01.836Z,90.30
2022-08-14T16:00:54.190Z,89.80
2022-08-14T16:03:27.482Z,88.90
2022-08-14T16:06:11.096Z,88.30
2022-08-14T16:08:44.291Z,87.40
2022-08-14T16:11:12.728Z,86.90
2022-08-14T16:13:47.650Z,86.60
2022-08-14T16:16:50.022Z,86.60
2022-08-14T16:19:11.431Z,86.80
2022-08-14T16:22:01.613Z,87.10
2022-08-14T16:24:35.804Z,87.40
2022-08-14T16:27:05.113Z,87.70
2022-08-14T16:29:51.127Z,87.70
2022-08-14T16:32:33.007Z,87.70
2022-08-14T16:35:02.953Z,88.00
2022-08-14T16:37:30.915Z,88.00
2022-08-14T16:40:01.265Z,88.40
2022-08-14T16:42:38.815Z,88.70
2022-08-14T16:45:18.632Z,88.90
2022-08-14T16:47:47.887Z,89.40
2022-08-14T16:50:43.458Z,89.30
2022-08-14T16:53:07.435Z,89.50
2022-08-14T16:55:53.378Z,89.80
2022-08-14T16:58:32.506Z,89.50
2022-08-14T17:01:31.512Z,88.60
2022-08-14T17:04:08.702Z,88.20
2022-08-14T17:06:52.979Z,88.50
2022-08-14T17:09:35.795Z,87.60
2022-08-14T17:12:28.379Z,87.80
2022-08-14T17:15:10.456Z,87.50
2022-08-14T17:17:40.660Z,87.30
2022-08-14T17:20:53.476Z,87.30
2022-08-14T17:23:10.847Z,87.40
2022-08-14T17:25:39.099Z,87.50
2022-08-14T17:28:52.583Z,87.60
2022-08-14T17:31:05.412Z,87.50
2022-08-14T17:33:44.132Z,87.70
2022-08-14T17:36:21.321Z,87.80
2022-08-14T17:39:07.183Z,88.00
2022-08-14T17:41:43.643Z,88.10
2022-08-14T17:44:33.833Z,88.30
2022-08-14T17:47:14.547Z,88.20
2022-08-14T17:49:46.921Z,88.10
2022-08-14T17:52:35.981Z,88.40
2022-08-14T17:56:00.397Z,88.40
2022-08-14T17:57:58.768Z,88.60
2022-08-14T18:00:26.306Z,88.90
2022-08-14T18:02:53.998Z,89.10
2022-08-14T18:05:23.306Z,89.20
2022-08-14T18:08:32.538Z,89.50
2022-08-14T18:10:56.995Z,89.60
2022-08-14T18:13:51.051Z,89.80
2022-08-14T18:16:20.197Z,89.90
2022-08-14T18:18:50.139Z,90.00
2022-08-14T18:21:41.537Z,90.40
2022-08-14T18:24:28.439Z,91.00
2022-08-14T18:27:14.893Z,90.90
2022-08-14T18:29:58.811Z,91.40
2022-08-14T18:32:31.640Z,92.00
2022-08-14T18:35:11.062Z,92.20
2022-08-14T18:37:40.987Z,92.70
2022-08-14T18:40:17.819Z,92.40
2022-08-14T18:42:50.538Z,92.70
2022-08-14T18:45:28.852Z,92.70
2022-08-14T18:48:18.602Z,93.00
2022-08-14T18:51:00.420Z,93.20
2022-08-14T18:53:34.078Z,93.70
2022-08-14T18:56:09.235Z,93.90
2022-08-14T18:58:49.199Z,94.00
2022-08-14T19:01:29.981Z,94.10
2022-08-14T19:03:58.760Z,94.40
2022-08-14T19:06:40.640Z,94.40
2022-08-14T19:09:07.701Z,94.60
2022-08-14T19:11:37.762Z,95.00
2022-08-14T19:14:05.814Z,95.20
2022-08-14T19:16:37.844Z,95.50
2022-08-14T19:19:11.843Z,95.50
2022-08-14T19:21:40.888Z,95.50
2022-08-14T19:24:29.365Z,95.50
2022-08-14T19:27:23.523Z,95.70
2022-08-14T19:30:32.728Z,96.00
2022-08-14T19:33:03.681Z,96.30
2022-08-14T19:35:48.796Z,96.50
2022-08-14T19:38:44.429Z,96.50
2022-08-14T19:41:29.540Z,96.70
2022-08-14T19:44:15.871Z,96.50
2022-08-14T19:47:01.953Z,96.70
2022-08-14T19:50:08.323Z,96.80
2022-08-14T19:52:24.150Z,96.80
2022-08-14T19:54:51.719Z,96.80
2022-08-14T19:57:24.599Z,96.80
2022-08-14T20:00:29.352Z,96.80
2022-08-14T20:03:12.910Z,96.90
2022-08-14T20:05:47.749Z,96.80
2022-08-14T20:09:05.925Z,96.90
2022-08-14T20:12:00.920Z,96.70
2022-08-14T20:14:22.966Z,96.60
2022-08-14T20:17:04.687Z,96.90
2022-08-14T20:19:37.655Z,96.70
2022-08-14T20:22:36.651Z,96.50
2022-08-14T20:24:56.461Z,96.50
2022-08-14T20:27:33.403Z,96.40
2022-08-14T20:30:35.275Z,96.30
2022-08-14T20:33:07.818Z,96.10
2022-08-14T20:35:43.798Z,95.90
2022-08-14T20:38:31.160Z,96.20
2022-08-14T20:41:05.706Z,95.80
2022-08-14T20:43:54.817Z,95.60
2022-08-14T20:46:31.145Z,95.50
2022-08-14T20:49:10.865Z,95.60
2022-08-14T20:51:59.429Z,95.50
2022-08-14T20:54:33.979Z,95.30
2022-08-14T20:57:11.399Z,95.40
2022-08-14T20:59:43.377Z,95.40
2022-08-14T21:02:34.740Z,95.20
2022-08-14T21:05:17.321Z,95.20
2022-08-14T21:07:50.723Z,95.20
2022-08-14T21:10:36.139Z,95.20
2022-08-14T21:13:29.114Z,95.20
2022-08-14T21:16:02.533Z,95.10
2022-08-14T21:18:32.564Z,95.20
2022-08-14T21:21:07.078Z,95.20
2022-08-14T21:23:54.058Z,95.10
2022-08-14T21:26:52.054Z,95.00
2022-08-14T21:29:14.624Z,95.10
2022-08-14T21:31:42.428Z,95.10
2022-08-14T21:34:27.518Z,95.20
2022-08-14T21:36:56.391Z,95.10
2022-08-14T21:39:24.425Z,95.10
2022-08-14T21:41:58.527Z,95.20
2022-08-14T21:44:43.236Z,95.10
2022-08-14T21:47:12.670Z,95.20
2022-08-14T21:49:39.969Z,95.20
2022-08-14T21:52:49.700Z,95.20
2022-08-14T21:54:59.170Z,95.20
2022-08-14T21:57:56.306Z,95.40
2022-08-14T22:00:34.569Z,95.40
2022-08-14T22:03:14.239Z,95.40
2022-08-14T22:05:41.693Z,95.40
2022-08-14T22:08:12.033Z,95.40
2022-08-14T22:10:42.384Z,95.40
2022-08-14T22:13:11.560Z,95.50
2022-08-14T22:15:43.682Z,95.50
2022-08-14T22:18:20.643Z,95.50
2022-08-14T22:20:53.965Z,95.50
2022-08-14T22:23:23.972Z,95.60
2022-08-14T22:25:51.203Z,95.80
2022-08-14T22:28:25.621Z,95.80
2022-08-14T22:30:55.392Z,95.90
2022-08-14T22:33:30.858Z,96.00
2022-08-14T22:36:25.339Z,96.00
2022-08-14T22:38:53.371Z,96.10
2022-08-14T22:41:26.198Z,96.10
2022-08-14T22:44:04.493Z,96.30
2022-08-14T22:46:33.685Z,96.40
2022-08-14T22:49:16.171Z,96.40
2022-08-14T22:51:48.501Z,96.40
2022-08-14T22:54:52.874Z,96.80
2022-08-14T22:57:03.974Z,96.60
2022-08-14T22:59:36.879Z,96.70
2022-08-14T23:02:11.901Z,96.70
2022-08-14T23:04:42.865Z,96.80
2022-08-14T23:07:22.754Z,96.80
2022-08-14T23:09:56.510Z,96.90
2022-08-14T23:12:29.879Z,97.00
2022-08-14T23:14:58.099Z,97.10
2022-08-14T23:17:26.962Z,97.10
2022-08-14T23:19:56.506Z,97.20
2022-08-14T23:22:25.959Z,97.30
2022-08-14T23:24:56.721Z,97.40
2022-08-14T23:27:32.011Z,97.50
2022-08-14T23:30:31.799Z,97.60
2022-08-14T23:33:01.954Z,97.70
2022-08-14T23:35:29.033Z,97.80
2022-08-14T23:38:01.912Z,97.90
2022-08-14T23:40:30.127Z,97.90
2022-08-14T23:43:08.070Z,98.00
2022-08-14T23:45:39.910Z,98.20
2022-08-14T23:48:09.907Z,98.50
2022-08-14T23:50:40.781Z,98.50
2022-08-14T23:53:47.678Z,98.70
2022-08-14T23:56:18.436Z,98.70
2022-08-14T23:58:49.209Z,98.90
